Terminal Aerodrome Forecast
Issued by NWS Lake Charles, LA

Home | Current Version | Previous Version | Text Only | Print | Product List | Glossary On
Versions: 1 2 3 4 5 6 7 8 9 10 11 12 13 14 15
000
FTUS44 KLCH 211120
TAFBPT
TAF
KBPT 211120Z 2112/2212 VRB05KT P6SM SCT200
     FM211400 17008KT P6SM VCSH SCT030
     FM211800 18008KT P6SM VCTS SCT035CB
     FM220100 19005KT P6SM SCT250=

USA.gov is the U.S. government's official web portal to all federal, state and local government web resources and services.